Time;durP1;ratioP1;P1;durP2;ratioP2;P2;SDS_P1;SDS_P2;PMS_P1;PMS_P2;Temp;Humidity;BMP_temperature;BMP_pressure;BME280_temperature;BME280_humidity;BME280_pressure;Samples;Min_cycle;Max_cycle;Signal;HPM_P1;HPM_P2
2021/07/03 00:01:51;;;;;;;6.70;6.10;;;;;;;18.57;64.79;95807.22;4970132;28;20223;-86
2021/07/03 00:04:19;;;;;;;6.63;6.00;;;;;;;18.52;65.87;95804.47;4970625;28;20336;-85
2021/07/03 00:06:46;;;;;;;5.90;5.40;;;;;;;18.54;65.92;95799.81;4970441;28;20195;-86
2021/07/03 00:09:12;;;;;;;6.15;5.50;;;;;;;18.57;66.25;95810.63;4970444;28;20294;-85
2021/07/03 00:11:39;;;;;;;7.20;5.30;;;;;;;18.53;66.09;95803.44;4970339;28;20200;-86
2021/07/03 00:14:07;;;;;;;6.82;5.30;;;;;;;18.50;66.34;95803.88;4971048;28;20234;-85
2021/07/03 00:16:35;;;;;;;5.68;5.18;;;;;;;18.46;66.20;95807.97;4970823;28;20204;-85
2021/07/03 00:19:02;;;;;;;5.82;5.32;;;;;;;18.45;66.78;95807.16;4971396;28;20220;-86
2021/07/03 00:21:30;;;;;;;7.07;5.72;;;;;;;18.46;66.46;95800.16;4970712;28;20234;-85
2021/07/03 00:23:57;;;;;;;5.18;4.75;;;;;;;18.39;67.04;95805.44;4970582;28;20230;-86
2021/07/03 00:26:33;;;;;;;5.88;5.38;;;;;;;18.40;67.19;95796.59;4970719;28;20262;-86
2021/07/03 00:29:10;;;;;;;6.50;5.75;;;;;;;18.34;66.92;95796.66;4970662;28;20210;-85
2021/07/03 00:31:39;;;;;;;5.88;5.38;;;;;;;18.34;66.68;95781.03;4970138;28;20219;-86
2021/07/03 00:34:23;;;;;;;5.93;5.43;;;;;;;18.26;67.13;95788.16;4970336;28;20660;-84
2021/07/03 00:37:14;;;;;;;6.82;6.18;;;;;;;18.25;67.12;95776.13;4969778;28;20228;-85
2021/07/03 00:39:43;;;;;;;6.53;5.75;;;;;;;18.21;66.67;95782.00;4969783;28;20200;-85
2021/07/03 00:42:14;;;;;;;5.65;5.22;;;;;;;18.21;67.02;95771.56;4969705;28;20310;-85
2021/07/03 00:44:57;;;;;;;5.97;5.45;;;;;;;18.23;66.78;95770.34;4970141;28;20751;-85
2021/07/03 00:47:31;;;;;;;5.50;5.00;;;;;;;18.28;66.08;95772.25;4970308;28;20227;-86
2021/07/03 00:50:08;;;;;;;6.47;5.65;;;;;;;18.30;66.39;95770.25;4970846;28;20250;-86
2021/07/03 00:53:05;;;;;;;6.10;5.50;;;;;;;18.21;67.83;95774.97;4969777;28;20204;-87
2021/07/03 00:55:42;;;;;;;7.25;5.28;;;;;;;18.15;67.68;95768.03;4961142;28;20204;-86
2021/07/03 00:58:11;;;;;;;7.05;5.32;;;;;;;18.13;67.56;95772.66;4970011;28;20247;-86
2021/07/03 01:00:48;;;;;;;5.78;5.28;;;;;;;18.07;67.71;95776.16;4970141;28;20205;-85
2021/07/03 01:03:16;;;;;;;6.28;5.22;;;;;;;17.91;67.54;95781.91;4970072;28;20235;-86
2021/07/03 01:06:03;;;;;;;5.40;4.90;;;;;;;17.91;68.53;95781.91;4970391;28;20204;-86
2021/07/03 01:08:33;;;;;;;5.35;4.85;;;;;;;17.88;67.76;95777.97;4972857;28;20304;-85
2021/07/03 01:11:00;;;;;;;6.07;5.22;;;;;;;17.88;67.64;95777.97;4973738;28;20609;-86
2021/07/03 01:13:42;;;;;;;6.10;5.18;;;;;;;17.90;67.27;95786.34;4973673;28;20310;-86
2021/07/03 01:16:32;;;;;;;6.57;4.88;;;;;;;17.84;68.06;95786.41;4973594;28;20413;-85
2021/07/03 01:19:05;;;;;;;5.43;4.93;;;;;;;17.82;67.96;95781.44;4973734;28;20216;-85
2021/07/03 01:21:41;;;;;;;5.80;5.30;;;;;;;17.82;67.79;95778.03;4973643;28;20223;-85
2021/07/03 01:24:25;;;;;;;6.20;5.55;;;;;;;17.62;68.99;95773.00;4974057;28;20236;-85
2021/07/03 01:27:02;;;;;;;6.05;5.13;;;;;;;17.58;68.89;95782.22;4974089;28;20377;-86
2021/07/03 01:29:39;;;;;;;6.38;4.97;;;;;;;17.51;69.40;95774.47;4973995;28;20203;-85
2021/07/03 01:32:12;;;;;;;7.63;5.78;;;;;;;17.34;70.16;95773.44;4973448;28;20575;-86
2021/07/03 01:38:06;;;;;;;6.05;5.30;;;;;;;17.44;70.21;95775.56;4970547;28;20212;-86
2021/07/03 01:41:09;;;;;;;;;;;;;;;;;;;;;
2021/07/03 01:44:07;;;;;;;6.28;5.78;;;;;;;17.21;72.14;95776.16;4965128;28;20216;-86
2021/07/03 01:46:47;;;;;;;6.00;5.50;;;;;;;17.18;71.48;95777.38;4945850;28;20204;-85
2021/07/03 01:49:28;;;;;;;5.80;5.30;;;;;;;17.23;71.85;95776.75;4973394;28;20204;-85
2021/07/03 01:52:02;;;;;;;6.10;5.50;;;;;;;17.33;70.82;95776.25;4972822;28;20224;-84
2021/07/03 01:54:43;;;;;;;5.68;5.18;;;;;;;17.19;72.08;95775.56;4973433;28;20298;-85
2021/07/03 01:57:17;;;;;;;5.85;5.38;;;;;;;17.19;71.32;95784.19;4972315;28;20611;-85
2021/07/03 02:00:04;;;;;;;6.97;5.20;;;;;;;17.20;72.21;95785.78;4973370;28;20253;-86
2021/07/03 02:02:41;;;;;;;5.63;5.13;;;;;;;17.29;71.30;95775.09;4972451;28;20862;-86
2021/07/03 02:05:48;;;;;;;5.85;5.28;;;;;;;17.32;71.51;95775.44;4973003;28;20204;-85
2021/07/03 02:08:49;;;;;;;;;;;;;;;;;;;;;
2021/07/03 02:11:19;;;;;;;8.02;5.32;;;;;;;17.23;71.45;95768.94;4972162;28;20215;-85
2021/07/03 02:13:57;;;;;;;6.68;5.57;;;;;;;17.25;71.11;95761.72;4972750;28;20807;-85
2021/07/03 02:16:35;;;;;;;5.80;5.30;;;;;;;17.18;71.88;95772.16;4972989;28;20693;-86
2021/07/03 02:19:21;;;;;;;5.90;5.40;;;;;;;17.05;72.36;95771.50;4972315;28;20216;-86
2021/07/03 02:21:59;;;;;;;5.75;5.25;;;;;;;17.02;72.85;95764.09;4972376;28;20223;-85
2021/07/03 02:25:01;;;;;;;6.10;5.50;;;;;;;17.07;72.44;95761.66;4972137;28;20198;-85
2021/07/03 02:30:39;;;;;;;;;;;;;;;;;;;;;
2021/07/03 02:33:16;;;;;;;5.50;5.00;;;;;;;16.98;73.22;95761.13;4971908;28;20200;-85
2021/07/03 02:38:41;;;;;;;7.65;5.70;;;;;;;16.74;74.64;95773.09;4985682;23;20236;-86
2021/07/03 02:41:11;;;;;;;5.70;5.20;;;;;;;16.76;74.45;95775.47;4971944;28;20825;-86
2021/07/03 02:43:53;;;;;;;6.18;5.57;;;;;;;16.76;74.10;95765.88;4971839;28;20224;-85
2021/07/03 02:46:26;;;;;;;5.63;5.13;;;;;;;16.88;73.24;95772.00;4972134;28;20267;-86
2021/07/03 02:49:04;;;;;;;5.85;5.05;;;;;;;17.02;72.60;95770.09;4972069;28;20803;-84
2021/07/03 02:55:10;;;;;;;6.15;5.55;;;;;;;17.00;72.25;95768.72;4914928;28;20200;-86
2021/07/03 02:57:43;;;;;;;6.10;5.50;;;;;;;16.90;73.02;95775.19;4970520;28;20240;-86
2021/07/03 03:00:45;;;;;;;6.07;5.47;;;;;;;16.93;72.98;95779.97;4971637;28;20258;-86
2021/07/03 03:03:27;;;;;;;6.68;4.95;;;;;;;17.01;72.37;95780.72;4936500;28;20242;-86
2021/07/03 03:05:59;;;;;;;6.28;5.63;;;;;;;17.05;71.87;95780.09;4971771;28;20242;-85
2021/07/03 03:08:34;;;;;;;6.60;5.93;;;;;;;17.02;72.02;95777.09;4971308;28;20216;-86
2021/07/03 03:11:17;;;;;;;6.20;5.50;;;;;;;17.06;71.62;95784.28;4970855;28;20203;-84
2021/07/03 03:14:28;;;;;;;5.82;5.32;;;;;;;16.97;71.60;95780.34;4971698;28;20196;-86
2021/07/03 03:17:08;;;;;;;5.90;5.20;;;;;;;16.84;71.92;95778.63;4971449;28;20851;-85
2021/07/03 03:19:52;;;;;;;7.32;5.65;;;;;;;16.77;72.42;95783.06;4971482;28;20196;-85
2021/07/03 03:22:29;;;;;;;5.68;5.10;;;;;;;16.73;72.81;95781.13;4971191;28;20612;-86
2021/07/03 03:25:11;;;;;;;6.55;5.82;;;;;;;16.76;72.58;95784.06;4971368;28;20656;-85
2021/07/03 03:28:01;;;;;;;;;;;;;;;;;;;;;
2021/07/03 03:30:48;;;;;;;6.00;5.50;;;;;;;16.74;72.40;95782.72;4970194;28;20212;-85
2021/07/03 03:33:18;;;;;;;6.35;5.35;;;;;;;16.69;73.02;95788.53;4971918;28;20202;-86
2021/07/03 03:35:56;;;;;;;5.63;5.07;;;;;;;16.69;72.67;95787.75;4971162;28;20292;-85
2021/07/03 03:38:24;;;;;;;6.20;5.60;;;;;;;16.59;73.29;95794.16;4971334;28;20311;-86
2021/07/03 03:41:11;;;;;;;5.60;5.10;;;;;;;16.49;73.71;95796.41;4970667;28;20204;-85
2021/07/03 03:43:55;;;;;;;6.00;5.47;;;;;;;16.47;74.46;95801.03;4971220;28;20739;-85
2021/07/03 03:46:38;;;;;;;6.00;5.50;;;;;;;16.50;74.46;95789.41;4970506;28;20200;-85
2021/07/03 03:49:11;;;;;;;5.78;5.22;;;;;;;16.63;73.70;95798.94;4971032;28;20279;-85
2021/07/03 03:51:47;;;;;;;6.85;5.68;;;;;;;16.67;73.83;95800.16;4970890;28;20291;-86
2021/07/03 03:54:40;;;;;;;;;;;;;;;;;;;;;
2021/07/03 03:57:29;;;;;;;7.70;5.45;;;;;;;16.77;73.37;95790.06;4970429;28;20236;-85
2021/07/03 04:05:43;;;;;;;5.60;5.10;;;;;;;16.96;73.02;95785.75;4972210;28;20825;-85
2021/07/03 04:08:17;;;;;;;5.93;5.32;;;;;;;16.98;73.53;95789.75;4971388;28;20846;-85
2021/07/03 04:10:48;;;;;;;6.00;5.50;;;;;;;17.01;73.74;95785.91;4970694;28;20266;-85
2021/07/03 04:13:20;;;;;;;5.88;5.38;;;;;;;17.05;73.70;95785.28;4971158;28;20283;-85
2021/07/03 04:18:56;;;;;;;5.90;5.50;;;;;;;17.17;72.76;95791.41;4969462;28;20238;-86
2021/07/03 04:21:39;;;;;;;6.00;5.40;;;;;;;17.30;72.70;95793.13;4970689;28;20200;-86
2021/07/03 04:24:18;;;;;;;5.93;5.32;;;;;;;17.44;71.86;95801.59;4971019;28;20286;-86
2021/07/03 04:26:45;;;;;;;6.32;5.38;;;;;;;17.50;71.59;95792.94;4970853;28;20203;-85
2021/07/03 04:29:14;;;;;;;5.70;5.20;;;;;;;17.58;71.67;95792.66;4970477;28;20231;-85
2021/07/03 04:31:48;;;;;;;6.45;5.60;;;;;;;17.58;71.65;95795.25;4969931;28;20250;-85
2021/07/03 04:34:37;;;;;;;5.93;5.30;;;;;;;17.63;70.92;95790.22;4970442;28;20294;-86
2021/07/03 04:37:15;;;;;;;6.20;5.18;;;;;;;17.67;70.53;95795.81;4970447;28;20330;-85
2021/07/03 04:39:58;;;;;;;5.72;5.10;;;;;;;17.80;69.77;95803.50;4970707;28;20200;-86
2021/07/03 04:42:34;;;;;;;5.68;5.18;;;;;;;17.88;69.18;95798.81;4969935;28;20839;-87
2021/07/03 04:45:10;;;;;;;6.22;4.95;;;;;;;17.96;68.67;95797.72;4970561;28;20299;-85
2021/07/03 04:47:39;;;;;;;6.32;5.30;;;;;;;17.98;68.14;95794.88;4977055;23;20681;-85
2021/07/03 04:50:08;;;;;;;5.90;5.30;;;;;;;17.99;68.47;95788.66;4950764;29;20196;-85
2021/07/03 04:53:11;;;;;;;6.20;5.30;;;;;;;17.96;69.06;95782.06;4961716;28;20200;-86
2021/07/03 04:55:55;;;;;;;6.13;5.53;;;;;;;17.93;69.27;95783.28;4940879;28;20207;-86
2021/07/03 07:54:58;;;;;;;7.07;4.82;;;;;;;21.88;50.01;95701.00;4969700;28;20224;-82
2021/07/03 07:57:25;;;;;;;4.68;4.28;;;;;;;21.92;50.81;95698.69;4973356;28;20319;-82
2021/07/03 07:59:51;;;;;;;5.85;4.68;;;;;;;21.88;49.92;95701.00;4975477;28;20208;-85
2021/07/03 08:02:18;;;;;;;10.10;9.13;;;;;;;21.87;50.14;95709.09;4986342;28;20210;-84
2021/07/03 08:04:44;;;;;;;5.90;5.40;;;;;;;21.81;49.75;95705.63;4985327;28;20200;-84
2021/07/03 08:07:11;;;;;;;5.75;5.25;;;;;;;21.89;49.63;95712.28;4974631;28;20228;-84
2021/07/03 08:09:38;;;;;;;6.38;4.63;;;;;;;22.02;50.00;95704.06;4972610;28;20613;-84
2021/07/03 08:12:06;;;;;;;8.35;4.55;;;;;;;22.20;50.46;95701.13;4976113;28;20204;-84
2021/07/03 08:14:35;;;;;;;4.88;4.50;;;;;;;22.37;50.08;95701.81;4971762;28;20214;-85
2021/07/03 08:17:02;;;;;;;4.68;4.28;;;;;;;22.54;49.74;95693.03;4971993;28;20617;-86
2021/07/03 08:19:28;;;;;;;5.18;4.68;;;;;;;22.55;48.42;95690.19;4972082;28;20205;-86
2021/07/03 08:21:57;;;;;;;4.35;4.05;;;;;;;22.58;47.69;95687.06;4969542;28;20710;-87
2021/07/03 08:24:24;;;;;;;5.30;4.75;;;;;;;22.66;48.72;95691.06;4970248;28;20321;-85
2021/07/03 08:26:51;;;;;;;5.57;5.07;;;;;;;22.70;46.45;95687.72;4975867;28;20244;-85
2021/07/03 08:29:21;;;;;;;7.60;4.40;;;;;;;22.63;46.84;95681.88;4974134;28;20206;-85
2021/07/03 08:31:48;;;;;;;5.35;4.85;;;;;;;22.71;46.40;95683.22;4975684;28;20223;-84
2021/07/03 08:34:16;;;;;;;4.97;4.57;;;;;;;22.88;46.31;95678.69;4975781;28;20204;-84
2021/07/03 08:36:43;;;;;;;5.20;4.10;;;;;;;22.94;46.21;95682.13;4974154;28;20512;-85
2021/07/03 08:39:09;;;;;;;4.53;4.13;;;;;;;22.77;44.47;95679.63;4975381;28;20219;-84
2021/07/03 08:41:36;;;;;;;5.47;4.70;;;;;;;22.84;45.52;95682.84;4975027;28;20447;-84
2021/07/03 08:44:03;;;;;;;6.05;5.00;;;;;;;22.93;44.79;95673.44;4973502;28;20223;-86
2021/07/03 08:46:31;;;;;;;7.60;4.40;;;;;;;23.03;44.20;95670.13;4970535;28;20641;-87
2021/07/03 08:48:58;;;;;;;5.28;4.78;;;;;;;23.08;44.85;95664.91;4966393;28;20340;-87
2021/07/03 08:51:28;;;;;;;5.72;4.50;;;;;;;23.28;45.33;95666.88;4968574;28;20694;-87
2021/07/03 08:53:55;;;;;;;4.57;4.28;;;;;;;23.39;46.80;95668.50;4966613;28;20364;-87
2021/07/03 08:56:21;;;;;;;5.40;4.65;;;;;;;23.55;46.79;95666.78;4971745;28;20309;-88
2021/07/03 08:58:48;;;;;;;4.60;4.30;;;;;;;23.67;47.31;95670.75;4984450;28;20232;-86
2021/07/03 09:01:15;;;;;;;4.88;4.47;;;;;;;23.80;47.48;95673.97;4957224;28;20250;-87
2021/07/03 09:03:53;;;;;;;5.25;4.75;;;;;;;23.80;45.25;95666.09;4987689;28;20591;-87
2021/07/03 09:06:29;;;;;;;5.15;4.65;;;;;;;23.86;44.42;95665.06;4979846;28;20289;-87
2021/07/03 09:08:56;;;;;;;5.03;4.50;;;;;;;23.95;44.10;95658.25;4948172;28;20331;-87
2021/07/03 09:11:30;;;;;;;4.72;4.38;;;;;;;23.99;43.17;95656.69;4949348;28;20200;-88
2021/07/03 09:13:59;;;;;;;4.97;4.55;;;;;;;23.95;42.77;95658.25;4948819;29;20204;-88
2021/07/03 09:16:35;;;;;;;4.28;3.92;;;;;;;24.08;42.88;95655.13;4949196;28;20240;-88
2021/07/03 09:19:03;;;;;;;4.90;4.50;;;;;;;24.09;43.32;95664.59;4950130;28;20268;-84
2021/07/03 09:21:30;;;;;;;6.43;4.80;;;;;;;24.23;43.27;95664.91;4956734;29;20208;-86
2021/07/03 09:23:58;;;;;;;5.72;4.63;;;;;;;24.30;43.52;95658.38;4957294;28;20227;-84
2021/07/03 09:26:25;;;;;;;5.07;4.60;;;;;;;24.31;42.94;95659.16;4955222;28;20740;-86
2021/07/03 09:28:52;;;;;;;4.95;4.55;;;;;;;24.39;43.20;95656.81;4953032;28;20728;-87
2021/07/03 09:31:20;;;;;;;4.68;4.30;;;;;;;24.48;43.14;95649.16;4972548;28;20283;-87
2021/07/03 09:33:53;;;;;;;5.50;4.60;;;;;;;24.56;43.34;95655.78;4972801;28;20211;-87
2021/07/03 09:36:32;;;;;;;5.80;4.45;;;;;;;24.65;42.24;95648.91;4972975;28;20204;-87
2021/07/03 09:39:04;;;;;;;5.10;4.60;;;;;;;24.62;41.88;95644.19;4972125;28;20231;-87
2021/07/03 09:41:55;;;;;;;4.90;4.45;;;;;;;24.71;41.87;95653.13;4972767;28;20246;-87
2021/07/03 09:44:24;;;;;;;5.13;4.63;;;;;;;24.82;42.92;95649.47;4972483;28;20231;-87
2021/07/03 09:46:56;;;;;;;4.90;4.50;;;;;;;24.83;42.33;95644.94;4972394;28;20417;-86
2021/07/03 09:49:28;;;;;;;5.00;4.60;;;;;;;24.97;42.41;95641.56;4972393;28;20200;-87
2021/07/03 09:51:57;;;;;;;5.00;4.50;;;;;;;25.15;42.28;95640.22;4972136;28;20212;-86
2021/07/03 09:54:26;;;;;;;4.57;4.18;;;;;;;25.36;42.45;95646.25;4972354;28;20216;-87
2021/07/03 09:56:58;;;;;;;5.63;4.45;;;;;;;25.30;42.49;95644.66;4971234;28;20238;-86
2021/07/03 09:59:25;;;;;;;4.80;4.20;;;;;;;25.21;41.74;95635.75;4972281;28;20299;-86
2021/07/03 10:01:52;;;;;;;5.03;4.63;;;;;;;25.24;40.44;95635.97;4981203;28;20230;-86
2021/07/03 10:04:24;;;;;;;6.90;6.30;;;;;;;25.26;42.08;95635.72;4991549;28;20231;-87
2021/07/03 10:07:12;;;;;;;6.30;5.70;;;;;;;25.40;41.83;95628.84;4977547;28;20196;-85
2021/07/03 10:09:46;;;;;;;5.65;5.15;;;;;;;25.61;39.35;95627.69;4971382;28;20212;-86
2021/07/03 10:12:16;;;;;;;4.93;4.53;;;;;;;25.69;39.49;95623.72;4972182;28;20611;-86
2021/07/03 10:14:44;;;;;;;5.80;4.72;;;;;;;25.88;40.21;95623.91;4971904;28;20227;-87
2021/07/03 10:17:12;;;;;;;5.50;5.10;;;;;;;25.94;40.28;95623.63;4971490;28;20224;-87
2021/07/03 10:19:40;;;;;;;5.82;5.20;;;;;;;26.01;39.31;95624.09;4969607;28;20215;-87
2021/07/03 10:22:16;;;;;;;5.25;4.85;;;;;;;25.99;40.52;95622.78;4971345;28;20211;-88
2021/07/03 10:24:45;;;;;;;5.35;4.85;;;;;;;25.88;39.42;95610.72;4971770;28;20219;-87
2021/07/03 10:27:17;;;;;;;5.50;5.00;;;;;;;25.80;39.49;95614.69;4971155;28;20220;-86
2021/07/03 10:29:48;;;;;;;5.50;4.97;;;;;;;25.68;39.41;95611.59;4971533;28;20220;-87
2021/07/03 10:32:35;;;;;;;;;;;;;;;;;;;;;
2021/07/03 10:35:09;;;;;;;5.45;5.05;;;;;;;25.88;39.12;95602.81;4971418;28;20564;-86
2021/07/03 10:37:40;;;;;;;4.68;4.25;;;;;;;25.96;39.82;95608.31;4971304;28;20236;-86
2021/07/03 10:40:17;;;;;;;4.50;4.10;;;;;;;25.98;40.83;95600.88;4971885;28;20203;-87
2021/07/03 10:42:44;;;;;;;6.65;6.13;;;;;;;26.00;39.83;95605.88;4971790;28;20575;-85
2021/07/03 10:45:13;;;;;;;7.50;5.65;;;;;;;25.77;39.64;95610.00;4971651;28;20573;-85
2021/07/03 10:47:42;;;;;;;5.22;4.72;;;;;;;25.76;38.75;95601.28;4970873;28;20891;-86
2021/07/03 10:50:21;;;;;;;5.47;4.68;;;;;;;25.79;38.73;95592.00;4971442;28;20279;-87
2021/07/03 10:52:50;;;;;;;5.00;4.60;;;;;;;25.93;38.07;95589.59;4971061;28;20196;-86
2021/07/03 10:55:27;;;;;;;4.85;4.45;;;;;;;26.08;38.59;95592.13;4971491;28;20637;-86
2021/07/03 10:57:54;;;;;;;5.13;4.72;;;;;;;26.22;40.40;95584.38;4970587;28;20228;-86
2021/07/03 11:00:23;;;;;;;5.05;4.65;;;;;;;26.36;40.51;95585.38;4970826;28;20586;-85
2021/07/03 11:02:57;;;;;;;6.20;4.90;;;;;;;26.42;39.71;95577.13;4987216;28;20212;-86
2021/07/03 11:05:37;;;;;;;4.82;4.43;;;;;;;26.41;37.77;95572.09;4989807;28;20321;-87
2021/07/03 11:08:19;;;;;;;6.38;4.65;;;;;;;26.52;39.14;95575.47;4990191;28;20254;-87
2021/07/03 11:11:14;;;;;;;6.00;4.80;;;;;;;26.68;39.14;95590.13;4990507;28;20200;-86
2021/07/03 11:13:43;;;;;;;4.90;4.50;;;;;;;26.75;37.84;95582.63;4990422;28;20199;-87
2021/07/03 11:16:26;;;;;;;4.90;4.50;;;;;;;26.81;37.77;95574.41;4990174;28;20266;-85
2021/07/03 11:18:55;;;;;;;4.75;4.38;;;;;;;26.87;38.31;95569.84;4978844;28;20647;-87
2021/07/03 11:21:35;;;;;;;4.50;4.10;;;;;;;26.84;36.68;95573.06;4970598;28;20200;-87
2021/07/03 11:24:15;;;;;;;4.55;4.18;;;;;;;26.84;37.91;95571.19;4970978;28;20248;-88
2021/07/03 11:26:47;;;;;;;4.30;4.00;;;;;;;26.96;37.88;95570.06;4970731;28;20200;-87
2021/07/03 11:29:13;;;;;;;4.63;4.22;;;;;;;26.98;37.03;95566.06;4968957;28;20204;-87
2021/07/03 11:31:40;;;;;;;6.60;6.07;;;;;;;27.11;37.74;95570.69;4970676;28;20345;-86
2021/07/03 11:34:06;;;;;;;4.70;4.30;;;;;;;27.07;35.10;95566.25;4971122;28;20717;-87
2021/07/03 11:36:38;;;;;;;5.18;4.70;;;;;;;27.00;35.66;95563.94;4970087;28;20263;-87
2021/07/03 11:39:08;;;;;;;4.85;4.47;;;;;;;27.05;35.98;95566.53;4970506;28;20230;-87
2021/07/03 11:41:56;;;;;;;4.32;4.03;;;;;;;26.96;34.34;95557.63;4970197;28;20206;-88
2021/07/03 11:44:31;;;;;;;4.38;4.05;;;;;;;27.06;35.62;95556.75;4970015;28;20286;-87
2021/07/03 11:46:59;;;;;;;4.07;3.78;;;;;;;27.16;36.08;95560.06;4969424;28;20250;-88
2021/07/03 11:49:41;;;;;;;4.20;3.90;;;;;;;27.25;36.42;95552.31;4969641;28;20200;-88
2021/07/03 11:52:08;;;;;;;5.32;4.18;;;;;;;27.35;34.00;95554.81;4972573;28;20830;-83
2021/07/03 11:54:36;;;;;;;4.35;4.00;;;;;;;27.46;35.52;95553.63;4973897;28;20208;-83
2021/07/03 11:57:02;;;;;;;4.60;4.07;;;;;;;27.53;35.91;95561.19;4972099;28;20231;-82
2021/07/03 11:59:30;;;;;;;4.43;4.03;;;;;;;27.62;34.41;95550.81;4972788;28;20298;-85
2021/07/03 12:01:56;;;;;;;4.03;3.72;;;;;;;27.70;34.39;95558.13;4975560;28;20843;-84
2021/07/03 12:04:23;;;;;;;6.25;3.88;;;;;;;27.75;34.47;95548.25;4972999;28;20607;-83
2021/07/03 12:07:01;;;;;;;3.90;3.60;;;;;;;27.58;33.67;95544.50;4973077;28;20232;-82
2021/07/03 12:09:36;;;;;;;5.28;3.90;;;;;;;27.50;33.27;95549.34;4972259;28;20200;-85
2021/07/03 12:12:03;;;;;;;5.28;4.30;;;;;;;27.51;33.47;95543.00;4972483;28;20207;-84
2021/07/03 12:14:30;;;;;;;4.68;3.95;;;;;;;27.57;33.46;95546.38;4972963;28;20690;-85
2021/07/03 12:16:57;;;;;;;3.90;3.60;;;;;;;27.57;35.02;95538.44;4972784;28;20664;-82
2021/07/03 12:19:24;;;;;;;4.25;3.85;;;;;;;27.63;32.50;95541.81;4972443;28;20208;-82
2021/07/03 12:21:51;;;;;;;4.47;4.18;;;;;;;27.61;32.87;95536.00;4972594;28;20203;-81
2021/07/03 12:24:18;;;;;;;4.10;3.70;;;;;;;27.48;33.17;95538.28;4972769;28;20243;-85
2021/07/03 12:26:49;;;;;;;4.07;3.78;;;;;;;27.36;33.36;95537.09;4972683;28;20208;-85
2021/07/03 12:29:23;;;;;;;8.25;7.55;;;;;;;27.37;35.01;95530.72;4972543;28;20204;-82
2021/07/03 12:31:52;;;;;;;4.72;4.30;;;;;;;27.55;35.84;95532.59;4972869;28;20210;-81
2021/07/03 12:34:23;;;;;;;4.47;3.97;;;;;;;27.73;34.49;95528.44;4973434;28;20196;-85
2021/07/03 12:36:51;;;;;;;7.75;4.10;;;;;;;27.87;35.55;95524.00;4971775;28;20196;-83
2021/07/03 12:39:20;;;;;;;4.07;3.72;;;;;;;27.82;33.01;95522.22;4971539;28;20208;-84
2021/07/03 12:41:55;;;;;;;5.05;3.70;;;;;;;27.89;33.75;95526.38;4971466;28;20196;-84
2021/07/03 12:44:32;;;;;;;3.85;3.55;;;;;;;27.95;33.77;95517.25;4972265;28;20225;-83
2021/07/03 12:46:59;;;;;;;13.43;12.20;;;;;;;27.94;32.89;95515.69;4971476;28;20615;-82
2021/07/03 12:49:33;;;;;;;4.55;4.15;;;;;;;27.91;32.08;95510.97;4971754;28;20286;-82
2021/07/03 12:52:00;;;;;;;4.43;4.07;;;;;;;27.77;31.76;95513.56;4972459;28;20215;-83
2021/07/03 12:54:28;;;;;;;4.35;4.00;;;;;;;27.56;32.48;95505.09;4970623;28;20204;-85
2021/07/03 12:56:57;;;;;;;3.95;3.55;;;;;;;27.57;34.00;95497.94;4969643;28;20238;-86
2021/07/03 12:59:34;;;;;;;3.80;3.50;;;;;;;27.70;34.81;95500.72;4968857;28;20204;-86
2021/07/03 13:02:05;;;;;;;3.67;3.38;;;;;;;27.89;33.69;95506.00;4979078;28;20261;-87
2021/07/03 13:04:31;;;;;;;4.00;3.60;;;;;;;27.96;34.06;95503.75;4988554;28;20610;-86
2021/07/03 13:06:58;;;;;;;3.90;3.60;;;;;;;28.01;33.48;95502.88;4987964;28;20290;-85
2021/07/03 13:09:27;;;;;;;4.20;3.80;;;;;;;28.06;34.54;95502.81;4988227;28;20210;-86
2021/07/03 13:11:55;;;;;;;4.13;3.65;;;;;;;28.19;34.72;95494.13;4988492;28;20203;-86
2021/07/03 13:14:24;;;;;;;3.70;3.40;;;;;;;28.20;34.87;95506.31;4989302;28;20206;-85
2021/07/03 13:16:50;;;;;;;4.18;3.78;;;;;;;28.23;32.31;95495.16;4989194;28;20209;-86
2021/07/03 13:19:19;;;;;;;4.45;3.83;;;;;;;28.16;32.77;95506.06;4974716;28;20204;-86
2021/07/03 13:21:45;;;;;;;3.92;3.63;;;;;;;28.00;32.52;95491.50;4969119;28;20664;-86
2021/07/03 13:24:13;;;;;;;3.90;3.60;;;;;;;27.94;31.88;95492.66;4970522;28;20206;-85
2021/07/03 13:26:39;;;;;;;3.78;3.47;;;;;;;28.04;32.41;95483.78;4970068;28;20200;-86
2021/07/03 13:29:12;;;;;;;4.05;3.40;;;;;;;28.08;33.88;95487.44;4972366;28;20263;-84
2021/07/03 13:31:39;;;;;;;3.70;3.30;;;;;;;28.16;34.27;95474.31;4969496;28;20591;-85
2021/07/03 13:34:08;;;;;;;26.48;24.00;;;;;;;28.15;34.72;95474.59;4969139;28;20214;-86
2021/07/03 13:36:37;;;;;;;17.80;16.20;;;;;;;28.16;34.11;95473.50;4968572;28;20251;-85
2021/07/03 13:39:05;;;;;;;6.90;6.35;;;;;;;28.02;33.57;95470.84;4968941;28;20247;-85
2021/07/03 13:41:32;;;;;;;4.68;4.28;;;;;;;28.07;34.11;95467.31;4969610;28;20219;-83
2021/07/03 13:43:58;;;;;;;4.25;3.95;;;;;;;28.01;32.79;95458.66;4975830;28;20308;-86
2021/07/03 13:46:26;;;;;;;4.00;3.70;;;;;;;28.09;34.27;95460.66;4974822;28;20754;-84
2021/07/03 13:48:53;;;;;;;3.60;3.38;;;;;;;28.10;34.16;95466.72;4972485;28;20223;-83
2021/07/03 13:51:20;;;;;;;3.92;3.63;;;;;;;28.05;32.67;95466.81;4971953;28;20207;-85
2021/07/03 13:53:46;;;;;;;3.97;3.47;;;;;;;27.99;32.37;95455.53;4972640;28;20821;-85
2021/07/03 13:56:13;;;;;;;3.60;3.30;;;;;;;28.04;33.59;95459.97;4972490;28;20239;-81
2021/07/03 13:58:39;;;;;;;3.55;3.35;;;;;;;27.98;34.10;95456.59;4974295;28;20591;-85
2021/07/03 14:01:08;;;;;;;3.67;3.35;;;;;;;28.03;33.82;95458.38;4978592;28;20202;-83
2021/07/03 14:03:36;;;;;;;12.35;11.35;;;;;;;28.01;33.66;95455.25;4994669;28;20203;-85
2021/07/03 14:06:03;;;;;;;11.73;10.68;;;;;;;27.98;34.72;95459.25;4995952;28;20235;-85
2021/07/03 14:08:29;;;;;;;10.80;9.82;;;;;;;28.03;34.97;95455.75;4994158;28;20235;-82
2021/07/03 14:10:56;;;;;;;5.57;5.07;;;;;;;28.11;35.01;95452.41;4977106;28;20544;-86
2021/07/03 14:13:22;;;;;;;3.92;3.63;;;;;;;28.18;34.67;95450.97;4975847;28;20204;-83
2021/07/03 14:15:49;;;;;;;3.50;3.30;;;;;;;28.13;35.19;95443.09;4977938;28;20210;-82
2021/07/03 14:18:15;;;;;;;3.92;3.30;;;;;;;28.06;33.12;95442.72;4977418;28;20619;-86
2021/07/03 14:20:43;;;;;;;4.05;3.20;;;;;;;28.10;33.97;95448.97;4978241;28;20207;-83
2021/07/03 14:23:09;;;;;;;4.20;3.75;;;;;;;28.08;33.50;95440.56;4978897;28;20215;-85
2021/07/03 14:25:38;;;;;;;3.67;3.03;;;;;;;28.05;34.27;95446.44;4977603;28;20216;-83
2021/07/03 14:28:14;;;;;;;3.75;3.45;;;;;;;27.97;35.30;95438.34;4973644;28;20267;-85
2021/07/03 14:30:40;;;;;;;4.13;3.38;;;;;;;27.87;34.29;95434.03;4975532;28;20211;-83
2021/07/03 14:33:07;;;;;;;3.95;3.65;;;;;;;27.81;34.80;95435.97;4979240;28;20242;-84
2021/07/03 14:35:33;;;;;;;3.80;3.50;;;;;;;27.86;35.37;95427.16;4979369;28;20205;-85
2021/07/03 14:38:01;;;;;;;4.47;3.38;;;;;;;27.83;34.17;95425.09;4977262;28;20224;-85
2021/07/03 14:40:28;;;;;;;3.67;3.47;;;;;;;27.88;34.40;95429.53;4977476;28;20763;-84
2021/07/03 14:42:55;;;;;;;4.00;3.70;;;;;;;27.72;34.64;95431.59;4976108;28;20208;-85
2021/07/03 14:45:22;;;;;;;3.60;3.40;;;;;;;27.65;33.69;95428.56;4978853;28;20223;-85
2021/07/03 14:47:48;;;;;;;3.88;3.50;;;;;;;27.65;34.11;95425.91;4978695;28;20311;-85
2021/07/03 14:50:15;;;;;;;4.45;4.05;;;;;;;27.70;34.47;95426.63;4977330;28;20205;-85
2021/07/03 14:52:41;;;;;;;3.72;3.40;;;;;;;27.77;34.23;95423.59;4979427;28;20204;-85
2021/07/03 14:55:13;;;;;;;3.65;3.40;;;;;;;27.73;33.69;95423.38;4977552;28;20192;-84
2021/07/03 14:57:39;;;;;;;3.60;3.30;;;;;;;27.47;34.62;95420.31;4999169;28;20250;-85
2021/07/03 15:00:10;;;;;;;3.63;3.42;;;;;;;27.56;35.37;95417.78;4977648;28;20212;-85
2021/07/03 15:02:37;;;;;;;4.05;3.65;;;;;;;27.59;36.16;95419.91;4978984;28;20230;-84
2021/07/03 15:05:05;;;;;;;4.70;3.50;;;;;;;27.65;36.41;95413.47;4977169;28;20224;-86
2021/07/03 15:07:31;;;;;;;3.78;3.50;;;;;;;27.57;35.54;95411.47;4975911;28;20228;-85
2021/07/03 15:09:58;;;;;;;3.50;3.20;;;;;;;27.53;34.59;95411.22;4977723;28;20206;-86
2021/07/03 15:12:25;;;;;;;3.67;3.38;;;;;;;27.47;34.72;95407.09;4977984;28;20560;-85
2021/07/03 15:14:52;;;;;;;3.72;3.42;;;;;;;27.32;34.97;95406.53;4976752;28;20204;-86
2021/07/03 15:17:18;;;;;;;3.97;3.55;;;;;;;27.13;35.41;95404.66;4976472;28;20231;-85
2021/07/03 15:19:48;;;;;;;3.38;3.08;;;;;;;27.04;35.53;95419.59;4975658;28;20204;-84
2021/07/03 15:22:14;;;;;;;26.00;23.67;;;;;;;26.97;37.57;95413.06;4977758;28;20211;-86
2021/07/03 15:24:41;;;;;;;16.15;14.55;;;;;;;26.91;36.87;95409.69;4974853;28;20207;-86
2021/07/03 15:27:08;;;;;;;7.90;7.15;;;;;;;26.79;37.00;95412.72;4970750;28;20206;-86